createdAt,value
2023-04-05T00:00:38.272Z,13.84
2023-04-05T00:03:06.133Z,13.78
2023-04-05T00:05:34.650Z,13.74
2023-04-05T00:08:01.933Z,13.72
2023-04-05T00:10:29.812Z,13.70
2023-04-05T00:13:00.120Z,13.69
2023-04-05T00:15:32.134Z,13.66
2023-04-05T00:18:00.418Z,13.63
2023-04-05T00:20:27.431Z,13.59
2023-04-05T00:22:54.407Z,13.57
2023-04-05T00:25:22.757Z,13.57
2023-04-05T00:27:49.744Z,13.53
2023-04-05T00:30:21.321Z,13.52
2023-04-05T00:32:51.581Z,13.49
2023-04-05T00:35:18.854Z,13.46
2023-04-05T00:37:46.071Z,13.44
2023-04-05T00:40:13.208Z,13.40
2023-04-05T00:42:40.158Z,13.40
2023-04-05T00:45:07.782Z,13.38
2023-04-05T00:47:34.903Z,13.37
2023-04-05T00:50:02.085Z,13.37
2023-04-05T00:52:31.099Z,13.35
2023-04-05T00:54:58.801Z,13.34
2023-04-05T00:57:26.515Z,13.32
2023-04-05T00:59:53.599Z,13.31
2023-04-05T01:02:24.729Z,13.28
2023-04-05T01:05:01.168Z,13.27
2023-04-05T01:07:53.941Z,13.25
2023-04-05T01:10:23.299Z,13.23
2023-04-05T01:12:50.907Z,13.19
2023-04-05T01:15:19.036Z,13.16
2023-04-05T01:17:47.140Z,13.14
2023-04-05T01:20:15.273Z,13.13
2023-04-05T01:23:11.442Z,13.13
2023-04-05T01:26:00.254Z,13.14
2023-04-05T01:28:27.451Z,13.10
2023-04-05T01:31:26.750Z,13.06
2023-04-05T01:34:07.176Z,13.03
2023-04-05T01:36:41.338Z,13.02
2023-04-05T01:39:11.904Z,13.00
2023-04-05T01:41:40.815Z,13.00
2023-04-05T01:44:07.898Z,12.98
2023-04-05T01:46:34.904Z,12.99
2023-04-05T01:49:02.160Z,12.95
2023-04-05T01:51:30.361Z,12.94
2023-04-05T01:53:58.163Z,12.93
2023-04-05T01:56:25.097Z,12.91
2023-04-05T01:58:52.010Z,12.91
2023-04-05T02:01:19.370Z,12.88
2023-04-05T02:03:46.641Z,12.83
2023-04-05T02:06:13.811Z,12.75
2023-04-05T02:08:40.757Z,12.73
2023-04-05T02:11:08.014Z,12.73
2023-04-05T02:13:36.657Z,12.74
2023-04-05T02:16:03.617Z,12.73
2023-04-05T02:18:31.544Z,12.73
2023-04-05T02:21:04.424Z,12.70
2023-04-05T02:23:32.002Z,12.71
2023-04-05T02:25:59.495Z,12.65
2023-04-05T02:28:26.757Z,12.65
2023-04-05T02:30:54.289Z,12.66
2023-04-05T02:33:22.955Z,12.67
2023-04-05T02:35:52.198Z,12.66
2023-04-05T02:38:20.196Z,12.67
2023-04-05T02:40:51.483Z,12.64
2023-04-05T02:43:18.515Z,12.63
2023-04-05T02:45:47.052Z,12.62
2023-04-05T02:48:14.885Z,12.61
2023-04-05T02:50:42.567Z,12.58
2023-04-05T02:53:09.785Z,12.59
2023-04-05T02:55:37.109Z,12.59
2023-04-05T02:58:04.258Z,12.57
2023-04-05T03:00:38.531Z,12.55
2023-04-05T03:03:05.966Z,12.51
2023-04-05T03:05:33.977Z,12.50
2023-04-05T03:08:02.410Z,12.47
2023-04-05T03:10:36.346Z,12.45
2023-04-05T03:13:16.168Z,12.40
2023-04-05T03:15:46.274Z,12.42
2023-04-05T03:18:16.738Z,12.38
2023-04-05T03:20:46.000Z,12.36
2023-04-05T03:23:18.767Z,12.35
2023-04-05T03:25:49.531Z,12.35
2023-04-05T03:28:18.569Z,12.31
2023-04-05T03:30:50.534Z,12.24
2023-04-05T03:33:20.740Z,12.21
2023-04-05T03:35:50.456Z,12.22
2023-04-05T03:38:18.695Z,12.19
2023-04-05T03:40:54.942Z,12.18
2023-04-05T03:43:22.519Z,12.11
2023-04-05T03:45:49.778Z,12.06
2023-04-05T03:48:21.053Z,12.06
2023-04-05T03:50:49.720Z,12.03
2023-04-05T03:53:18.012Z,12.02
2023-04-05T03:55:50.591Z,11.98
2023-04-05T03:58:22.119Z,11.93
2023-04-05T04:00:49.353Z,11.92
2023-04-05T04:03:22.548Z,11.89
2023-04-05T04:05:52.638Z,11.88
2023-04-05T04:08:21.381Z,11.86
2023-04-05T04:10:50.013Z,11.86
2023-04-05T04:13:25.844Z,11.80
2023-04-05T04:16:13.826Z,11.75
2023-04-05T04:19:05.125Z,11.73
2023-04-05T04:21:53.034Z,11.69
2023-04-05T04:24:46.382Z,11.68
2023-04-05T04:27:32.594Z,11.66
2023-04-05T04:30:15.031Z,11.66
2023-04-05T04:33:00.092Z,11.62
2023-04-05T04:35:47.184Z,11.58
2023-04-05T04:38:29.444Z,11.54
2023-04-05T04:41:15.003Z,11.51
2023-04-05T04:44:05.680Z,11.48
2023-04-05T04:46:55.911Z,11.47
2023-04-05T04:49:46.829Z,11.45
2023-04-05T04:52:13.712Z,11.43
2023-04-05T04:54:42.877Z,11.39
2023-04-05T04:57:09.941Z,11.35
2023-04-05T04:59:37.046Z,11.31
2023-04-05T05:02:05.933Z,11.25
2023-04-05T05:04:37.541Z,11.24
2023-04-05T05:07:04.445Z,11.21
2023-04-05T05:09:33.919Z,11.20
2023-04-05T05:12:01.864Z,11.21
2023-04-05T05:14:28.733Z,11.20
2023-04-05T05:16:59.227Z,11.09
2023-04-05T05:19:29.229Z,11.14
2023-04-05T05:21:56.701Z,11.16
2023-04-05T05:24:24.662Z,11.19
2023-04-05T05:26:51.726Z,11.22
2023-04-05T05:29:20.527Z,11.22
2023-04-05T05:31:48.717Z,11.23
2023-04-05T05:34:16.061Z,11.24
2023-04-05T05:36:48.835Z,11.23
2023-04-05T05:39:16.440Z,11.28
2023-04-05T05:41:44.630Z,11.47
2023-04-05T05:44:12.223Z,11.71
2023-04-05T05:46:39.374Z,11.96
2023-04-05T05:49:06.335Z,12.26
2023-04-05T05:51:33.742Z,12.58
2023-04-05T05:54:00.696Z,12.93
2023-04-05T05:56:27.593Z,13.28
2023-04-05T05:58:54.582Z,13.68
2023-04-05T06:01:23.034Z,13.97
2023-04-05T06:03:50.769Z,14.44
2023-04-05T06:06:17.723Z,14.88
2023-04-05T06:08:44.717Z,15.24
2023-04-05T06:11:21.814Z,15.71
2023-04-05T06:13:50.209Z,16.06
2023-04-05T06:16:17.141Z,16.46
2023-04-05T06:18:44.336Z,16.82
2023-04-05T06:21:11.306Z,17.20
2023-04-05T06:23:38.314Z,17.58
2023-04-05T06:26:05.353Z,18.00
2023-04-05T06:28:32.271Z,18.32
2023-04-05T06:30:59.667Z,18.76
2023-04-05T06:33:27.208Z,19.17
2023-04-05T06:35:54.098Z,19.18
2023-04-05T06:38:21.086Z,19.58
2023-04-05T06:40:48.018Z,20.03
2023-04-05T06:43:14.936Z,20.44
2023-04-05T06:45:43.632Z,20.76
2023-04-05T06:48:11.393Z,20.87
2023-04-05T06:50:38.468Z,21.47
2023-04-05T06:53:05.530Z,21.87
2023-04-05T06:55:33.103Z,22.16
2023-04-05T06:58:01.186Z,22.60
2023-04-05T07:00:28.060Z,22.89
2023-04-05T07:02:54.949Z,23.35
2023-04-05T07:05:22.121Z,23.80
2023-04-05T07:07:49.124Z,24.37
2023-04-05T07:10:16.659Z,24.89
2023-04-05T07:12:43.593Z,25.22
2023-04-05T07:15:11.092Z,25.43
2023-04-05T07:17:38.065Z,25.86
2023-04-05T07:20:08.380Z,26.36
2023-04-05T07:22:35.945Z,26.60
2023-04-05T07:25:02.868Z,27.16
2023-04-05T07:27:30.508Z,27.66
2023-04-05T07:29:58.430Z,28.25
2023-04-05T07:32:25.502Z,28.56
2023-04-05T07:34:52.672Z,28.95
2023-04-05T07:37:19.593Z,29.37
2023-04-05T07:39:46.612Z,29.89
2023-04-05T07:42:13.515Z,30.30
2023-04-05T07:44:40.387Z,30.74
2023-04-05T07:47:07.980Z,31.14
2023-04-05T07:49:35.077Z,31.47
2023-04-05T07:52:02.049Z,31.75
2023-04-05T07:54:31.249Z,32.05
2023-04-05T07:56:58.332Z,32.18
2023-04-05T07:59:25.457Z,32.21
2023-04-05T08:01:53.958Z,32.47
2023-04-05T08:04:26.325Z,32.73
2023-04-05T08:06:53.262Z,32.92
2023-04-05T08:09:20.171Z,32.94
2023-04-05T08:11:47.099Z,32.85
2023-04-05T08:14:14.089Z,32.79
2023-04-05T08:16:41.160Z,32.75
2023-04-05T08:19:08.089Z,32.90
2023-04-05T08:21:35.411Z,32.81
2023-04-05T08:24:02.854Z,32.75
2023-04-05T08:26:29.766Z,32.91
2023-04-05T08:28:56.708Z,32.13
2023-04-05T08:31:23.685Z,32.47
2023-04-05T08:33:50.667Z,32.19
2023-04-05T08:36:17.823Z,32.50
2023-04-05T08:38:44.657Z,33.02
2023-04-05T08:41:19.544Z,33.80
2023-04-05T08:43:49.163Z,34.33
2023-04-05T08:46:17.933Z,34.36
2023-04-05T08:48:45.732Z,34.90
2023-04-05T08:51:12.898Z,35.83
2023-04-05T08:53:40.083Z,35.38
2023-04-05T08:56:07.863Z,36.08
2023-04-05T08:58:37.681Z,36.57
2023-04-05T09:01:06.933Z,36.99
2023-04-05T09:03:37.950Z,37.64
2023-04-05T09:06:09.252Z,36.81
2023-04-05T09:08:36.488Z,36.67
2023-04-05T09:11:03.485Z,36.53
2023-04-05T09:13:31.658Z,37.02
2023-04-05T09:16:02.326Z,37.32
2023-04-05T09:18:29.278Z,36.95
2023-04-05T09:21:06.474Z,36.92
2023-04-05T09:23:37.304Z,36.30
2023-04-05T09:26:27.504Z,36.11
2023-04-05T09:28:58.564Z,34.70
2023-04-05T09:31:36.187Z,34.62
2023-04-05T09:34:09.001Z,34.16
2023-04-05T09:36:36.466Z,32.06
2023-04-05T09:39:08.302Z,32.15
2023-04-05T09:41:36.580Z,32.88
2023-04-05T09:44:03.714Z,32.34
2023-04-05T09:46:38.442Z,32.44
2023-04-05T09:49:07.904Z,32.96
2023-04-05T09:51:36.378Z,33.83
2023-04-05T09:54:11.022Z,33.93
2023-04-05T09:56:40.690Z,32.86
2023-04-05T09:59:11.717Z,32.36
2023-04-05T10:01:43.261Z,31.09
2023-04-05T10:04:10.550Z,31.87
2023-04-05T10:06:43.151Z,32.24
2023-04-05T10:09:11.485Z,32.53
2023-04-05T10:11:39.325Z,32.31
2023-04-05T10:14:08.605Z,31.09
2023-04-05T10:16:59.501Z,31.56
2023-04-05T10:19:37.942Z,31.63
2023-04-05T10:22:14.809Z,31.05
2023-04-05T10:24:50.673Z,30.51
2023-04-05T10:27:46.475Z,29.95
2023-04-05T10:30:13.744Z,29.39
2023-04-05T10:33:07.919Z,28.60
2023-04-05T10:35:50.096Z,27.92
2023-04-05T10:38:20.189Z,27.34
2023-04-05T10:40:49.828Z,26.81
2023-04-05T10:43:21.504Z,26.32
2023-04-05T10:45:52.251Z,25.65
2023-04-05T10:48:25.407Z,25.00
2023-04-05T10:50:53.306Z,24.43
2023-04-05T10:53:22.299Z,24.05
2023-04-05T10:55:50.768Z,23.78
2023-04-05T10:58:18.707Z,23.43
2023-04-05T11:00:49.384Z,23.23
2023-04-05T11:03:41.816Z,22.50
2023-04-05T11:06:38.049Z,22.48
2023-04-05T11:09:15.591Z,22.45
2023-04-05T11:11:51.062Z,22.24
2023-04-05T11:14:35.963Z,22.21
2023-04-05T11:17:03.281Z,21.91
2023-04-05T11:19:50.009Z,21.75
2023-04-05T11:22:26.662Z,21.31
2023-04-05T11:24:58.194Z,21.21
2023-04-05T11:27:29.883Z,21.08
2023-04-05T11:30:01.205Z,20.55
2023-04-05T11:32:48.563Z,20.41
2023-04-05T11:35:23.946Z,19.69
2023-04-05T11:38:00.393Z,20.28
2023-04-05T11:40:35.810Z,19.85
2023-04-05T11:43:12.454Z,19.58
2023-04-05T11:45:42.093Z,19.75
2023-04-05T11:48:13.690Z,19.45
2023-04-05T11:50:42.218Z,18.96
2023-04-05T11:53:18.054Z,19.32
2023-04-05T11:55:55.499Z,19.54
2023-04-05T11:58:24.241Z,19.66
2023-04-05T12:01:11.885Z,19.57
2023-04-05T12:03:38.852Z,19.70
2023-04-05T12:06:07.000Z,19.79
2023-04-05T12:08:51.309Z,19.79
2023-04-05T12:11:28.500Z,19.30
2023-04-05T12:14:00.185Z,19.00
2023-04-05T12:16:27.998Z,18.70
2023-04-05T12:19:00.169Z,18.68
2023-04-05T12:21:28.245Z,18.62
2023-04-05T12:23:55.809Z,18.11
2023-04-05T12:26:23.012Z,18.14
2023-04-05T12:28:54.608Z,18.01
2023-04-05T12:31:46.613Z,17.98
2023-04-05T12:34:14.978Z,18.23
2023-04-05T12:36:48.853Z,18.00
2023-04-05T12:39:17.572Z,17.85
2023-04-05T12:41:44.583Z,17.89
2023-04-05T12:44:30.798Z,17.66
2023-04-05T12:47:05.796Z,17.72
2023-04-05T12:49:38.300Z,17.80
2023-04-05T12:52:05.320Z,17.60
2023-04-05T12:54:33.688Z,17.47
2023-04-05T12:57:04.634Z,17.32
2023-04-05T12:59:31.615Z,17.24
2023-04-05T13:01:58.547Z,17.39
2023-04-05T13:04:26.963Z,17.63
2023-04-05T13:06:55.221Z,17.64
2023-04-05T13:09:22.251Z,17.41
2023-04-05T13:11:49.177Z,17.47
2023-04-05T13:14:16.242Z,17.46
2023-04-05T13:16:43.465Z,17.63
2023-04-05T13:19:10.445Z,17.41
2023-04-05T13:21:38.039Z,17.42
2023-04-05T13:24:05.260Z,17.69
2023-04-05T13:26:32.145Z,17.96
2023-04-05T13:28:59.050Z,18.01
2023-04-05T13:31:26.035Z,17.97
2023-04-05T13:33:53.035Z,17.96
2023-04-05T13:36:19.908Z,17.81
2023-04-05T13:38:46.797Z,17.86
2023-04-05T13:41:16.117Z,17.90
2023-04-05T13:43:43.170Z,17.81
2023-04-05T13:46:10.153Z,17.94
2023-04-05T13:48:37.182Z,17.77
2023-04-05T13:51:04.257Z,17.92
2023-04-05T13:53:31.193Z,17.98
2023-04-05T13:55:58.131Z,17.82
2023-04-05T13:58:25.005Z,17.48
2023-04-05T14:00:53.237Z,17.71
2023-04-05T14:03:20.861Z,17.90
2023-04-05T14:05:50.721Z,17.69
2023-04-05T14:08:18.982Z,17.73
2023-04-05T14:10:46.178Z,17.62
2023-04-05T14:13:16.375Z,17.72
2023-04-05T14:15:44.192Z,17.67
2023-04-05T14:18:11.665Z,17.80
2023-04-05T14:20:39.095Z,17.84
2023-04-05T14:23:06.652Z,17.81
2023-04-05T14:25:33.532Z,17.84
2023-04-05T14:28:00.485Z,17.91
2023-04-05T14:30:27.490Z,17.54
2023-04-05T14:32:54.519Z,17.44
2023-04-05T14:35:21.472Z,17.30
2023-04-05T14:37:48.384Z,17.24
2023-04-05T14:40:15.659Z,17.24
2023-04-05T14:42:49.293Z,17.14
2023-04-05T14:45:17.548Z,17.14
2023-04-05T14:47:44.527Z,17.16
2023-04-05T14:50:11.521Z,17.31
2023-04-05T14:52:40.060Z,17.45
2023-04-05T14:55:07.602Z,17.55
2023-04-05T14:57:35.546Z,17.71
2023-04-05T15:00:02.545Z,17.78
2023-04-05T15:02:29.550Z,17.77
2023-04-05T15:05:00.498Z,17.77
2023-04-05T15:07:28.228Z,17.72
2023-04-05T15:09:55.456Z,17.71
2023-04-05T15:12:22.466Z,17.75
2023-04-05T15:14:50.944Z,17.72
2023-04-05T15:17:17.934Z,17.80
2023-04-05T15:19:44.872Z,17.78
2023-04-05T15:22:11.887Z,17.70
2023-04-05T15:24:43.463Z,17.39
2023-04-05T15:27:11.511Z,17.31
2023-04-05T15:29:38.901Z,17.11
2023-04-05T15:32:06.789Z,17.08
2023-04-05T15:34:33.769Z,17.20
2023-04-05T15:37:01.034Z,17.28
2023-04-05T15:39:27.875Z,16.94
2023-04-05T15:41:57.648Z,17.07
2023-04-05T15:44:24.666Z,17.11
2023-04-05T15:46:51.614Z,17.17
2023-04-05T15:49:18.547Z,16.86
2023-04-05T15:51:45.548Z,17.11
2023-04-05T15:54:18.555Z,17.13
2023-04-05T15:56:45.718Z,17.00
2023-04-05T15:59:12.798Z,17.08
2023-04-05T16:01:40.596Z,16.89
2023-04-05T16:04:07.809Z,16.77
2023-04-05T16:06:34.821Z,16.64
2023-04-05T16:09:02.486Z,16.54
2023-04-05T16:11:30.059Z,16.51
2023-04-05T16:13:57.782Z,16.73
2023-04-05T16:16:35.259Z,16.79
2023-04-05T16:19:06.235Z,16.86
2023-04-05T16:21:33.286Z,16.84
2023-04-05T16:24:01.355Z,16.92
2023-04-05T16:26:28.470Z,16.78
2023-04-05T16:28:55.480Z,16.64
2023-04-05T16:31:22.535Z,16.60
2023-04-05T16:33:49.564Z,16.45
2023-04-05T16:36:16.858Z,16.55
2023-04-05T16:38:45.590Z,16.67
2023-04-05T16:41:14.518Z,16.64
2023-04-05T16:43:41.485Z,16.67
2023-04-05T16:46:08.328Z,16.69
2023-04-05T16:48:35.514Z,16.66
2023-04-05T16:51:03.404Z,16.69
2023-04-05T16:53:31.508Z,16.61
2023-04-05T16:55:58.678Z,16.53
2023-04-05T16:58:25.794Z,16.53
2023-04-05T17:00:58.754Z,16.54
2023-04-05T17:03:26.666Z,16.63
2023-04-05T17:05:53.633Z,16.65
2023-04-05T17:08:21.682Z,16.61
2023-04-05T17:10:49.187Z,16.59
2023-04-05T17:13:16.539Z,16.37
2023-04-05T17:15:43.701Z,16.47
2023-04-05T17:18:12.539Z,16.45
2023-04-05T17:20:39.517Z,16.29
2023-04-05T17:23:06.503Z,16.35
2023-04-05T17:25:33.453Z,16.41
2023-04-05T17:28:00.465Z,16.35
2023-04-05T17:30:27.796Z,16.37
2023-04-05T17:32:54.679Z,16.37
2023-04-05T17:35:21.617Z,16.45
2023-04-05T17:37:48.684Z,16.44
2023-04-05T17:40:16.371Z,16.44
2023-04-05T17:42:43.357Z,16.42
2023-04-05T17:45:11.468Z,16.40
2023-04-05T17:47:38.744Z,16.27
2023-04-05T17:50:06.345Z,16.10
2023-04-05T17:52:33.561Z,16.05
2023-04-05T17:55:00.766Z,15.97
2023-04-05T17:57:27.782Z,16.11
2023-04-05T17:59:54.764Z,16.07
2023-04-05T18:02:21.851Z,16.11
2023-04-05T18:04:49.275Z,16.09
2023-04-05T18:07:16.345Z,16.17
2023-04-05T18:09:43.315Z,16.13
2023-04-05T18:12:10.842Z,16.11
2023-04-05T18:14:37.949Z,16.13
2023-04-05T18:17:07.547Z,16.11
2023-04-05T18:19:34.828Z,16.12
2023-04-05T18:22:01.807Z,16.16
2023-04-05T18:24:29.644Z,16.09
2023-04-05T18:26:57.599Z,16.08
2023-04-05T18:29:28.594Z,16.03
2023-04-05T18:31:56.729Z,16.05
2023-04-05T18:34:24.563Z,16.04
2023-04-05T18:36:51.820Z,16.04
2023-04-05T18:39:20.259Z,16.05
2023-04-05T18:41:47.388Z,16.09
2023-04-05T18:44:14.474Z,16.14
2023-04-05T18:46:41.888Z,16.10
2023-04-05T18:49:09.083Z,16.11
2023-04-05T18:51:36.352Z,16.16
2023-04-05T18:54:03.521Z,16.17
2023-04-05T18:56:30.494Z,16.13
2023-04-05T18:58:57.525Z,16.06
2023-04-05T19:01:24.742Z,16.06
2023-04-05T19:03:51.696Z,16.05
2023-04-05T19:06:18.726Z,16.07
2023-04-05T19:08:48.079Z,16.07
2023-04-05T19:11:15.236Z,16.08
2023-04-05T19:13:42.961Z,16.08
2023-04-05T19:16:10.384Z,16.03
2023-04-05T19:18:37.503Z,15.99
2023-04-05T19:21:04.581Z,15.93
2023-04-05T19:23:31.773Z,15.90
2023-04-05T19:25:58.685Z,15.90
2023-04-05T19:28:27.187Z,15.86
2023-04-05T19:30:54.837Z,15.86
2023-04-05T19:33:22.094Z,15.86
2023-04-05T19:35:49.325Z,15.82
2023-04-05T19:38:18.776Z,15.79
2023-04-05T19:40:45.713Z,15.78
2023-04-05T19:43:12.959Z,15.79
2023-04-05T19:45:39.958Z,15.76
2023-04-05T19:48:44.132Z,15.79
2023-04-05T19:51:14.315Z,15.75
2023-04-05T19:53:49.574Z,15.77
2023-04-05T19:56:21.960Z,15.76
2023-04-05T19:59:00.571Z,15.77
2023-04-05T20:01:38.811Z,15.81
2023-04-05T20:04:20.072Z,15.79
2023-04-05T20:06:54.475Z,15.78
2023-04-05T20:09:26.112Z,15.79
2023-04-05T20:12:01.537Z,15.83
2023-04-05T20:14:30.993Z,15.85
2023-04-05T20:16:58.686Z,15.89
2023-04-05T20:19:33.351Z,15.90
2023-04-05T20:22:06.180Z,15.90
2023-04-05T20:24:33.651Z,15.90
2023-04-05T20:27:03.213Z,15.91
2023-04-05T20:29:36.018Z,15.90
2023-04-05T20:32:05.147Z,15.94
2023-04-05T20:34:33.886Z,15.95
2023-04-05T20:37:02.348Z,15.96
2023-04-05T20:39:30.461Z,15.96
2023-04-05T20:41:59.814Z,15.96
2023-04-05T20:44:27.150Z,15.96
2023-04-05T20:46:56.469Z,15.97
2023-04-05T20:49:25.826Z,15.97
2023-04-05T20:51:55.005Z,15.97
2023-04-05T20:54:22.608Z,15.97
2023-04-05T20:56:49.747Z,15.98
2023-04-05T20:59:17.272Z,16.03
2023-04-05T21:01:47.245Z,16.02
2023-04-05T21:04:14.644Z,16.05
2023-04-05T21:06:41.723Z,16.05
2023-04-05T21:09:09.444Z,16.05
2023-04-05T21:11:36.872Z,16.07
2023-04-05T21:14:03.868Z,16.07
2023-04-05T21:16:31.618Z,16.05
2023-04-05T21:18:58.871Z,16.06
2023-04-05T21:21:26.583Z,16.04
2023-04-05T21:23:53.544Z,16.07
2023-04-05T21:26:21.415Z,16.05
2023-04-05T21:28:48.427Z,16.05
2023-04-05T21:31:15.697Z,16.05
2023-04-05T21:33:42.727Z,16.06
2023-04-05T21:36:09.896Z,16.06
2023-04-05T21:38:37.428Z,16.04
2023-04-05T21:41:04.341Z,16.04
2023-04-05T21:43:31.305Z,16.04
2023-04-05T21:45:58.179Z,16.04
2023-04-05T21:48:27.969Z,16.03
2023-04-05T21:50:54.994Z,16.02
2023-04-05T21:53:24.163Z,16.04
2023-04-05T21:55:51.161Z,16.03
2023-04-05T21:58:18.099Z,16.02
2023-04-05T22:00:44.964Z,16.02
2023-04-05T22:03:12.086Z,16.00
2023-04-05T22:05:39.264Z,15.94
2023-04-05T22:08:08.981Z,15.93
2023-04-05T22:10:36.709Z,15.89
2023-04-05T22:13:03.855Z,15.85
2023-04-05T22:15:31.805Z,15.84
2023-04-05T22:17:59.056Z,15.80
2023-04-05T22:20:26.554Z,15.76
2023-04-05T22:22:53.649Z,15.74
2023-04-05T22:25:20.646Z,15.69
2023-04-05T22:27:47.939Z,15.63
2023-04-05T22:30:16.101Z,15.59
2023-04-05T22:32:43.244Z,15.56
2023-04-05T22:35:10.902Z,15.52
2023-04-05T22:37:38.350Z,15.50
2023-04-05T22:40:08.169Z,15.45
2023-04-05T22:42:36.465Z,15.39
2023-04-05T22:45:03.589Z,15.36
2023-04-05T22:47:30.675Z,15.33
2023-04-05T22:49:57.628Z,15.26
2023-04-05T22:52:24.545Z,15.25
2023-04-05T22:54:51.680Z,15.21
2023-04-05T22:57:18.595Z,15.17
2023-04-05T22:59:46.726Z,15.14
2023-04-05T23:02:13.622Z,15.12
2023-04-05T23:04:40.922Z,15.08
2023-04-05T23:07:07.780Z,15.07
2023-04-05T23:09:34.662Z,15.04
2023-04-05T23:12:01.718Z,14.96
2023-04-05T23:14:28.697Z,14.96
2023-04-05T23:16:55.622Z,14.95
2023-04-05T23:19:22.605Z,14.93
2023-04-05T23:21:49.447Z,14.90
2023-04-05T23:24:16.321Z,14.85
2023-04-05T23:26:43.311Z,14.82
2023-04-05T23:29:10.344Z,14.80
2023-04-05T23:31:38.174Z,14.77
2023-04-05T23:34:05.489Z,14.74
2023-04-05T23:36:33.965Z,14.70
2023-04-05T23:39:01.077Z,14.67
2023-04-05T23:41:27.966Z,14.67
2023-04-05T23:43:54.882Z,14.64
2023-04-05T23:46:22.304Z,14.62
2023-04-05T23:48:49.556Z,14.57
2023-04-05T23:51:17.074Z,14.56
2023-04-05T23:53:44.032Z,14.52
2023-04-05T23:56:11.103Z,14.52
2023-04-05T23:58:38.249Z,14.49
